sensor_id;sensor_type;location;lat;lon;timestamp;P1;durP1;ratioP1;P2;durP2;ratioP2
69754;SDS011;57023;52.218;5.158;2022-09-09T00:00:16;3.40;;;2.10;;
69754;SDS011;57023;52.218;5.158;2022-09-09T00:02:44;3.85;;;2.15;;
69754;SDS011;57023;52.218;5.158;2022-09-09T00:05:29;3.88;;;2.10;;
69754;SDS011;57023;52.218;5.158;2022-09-09T00:08:01;4.03;;;2.28;;
69754;SDS011;57023;52.218;5.158;2022-09-09T00:13:18;4.28;;;2.38;;
69754;SDS011;57023;52.218;5.158;2022-09-09T00:18:38;5.53;;;2.55;;
69754;SDS011;57023;52.218;5.158;2022-09-09T00:21:15;5.30;;;2.50;;
69754;SDS011;57023;52.218;5.158;2022-09-09T00:23:51;4.97;;;2.65;;
69754;SDS011;57023;52.218;5.158;2022-09-09T00:31:37;5.57;;;2.70;;
69754;SDS011;57023;52.218;5.158;2022-09-09T00:34:05;4.70;;;2.80;;
69754;SDS011;57023;52.218;5.158;2022-09-09T00:36:37;5.20;;;2.60;;
69754;SDS011;57023;52.218;5.158;2022-09-09T00:39:03;5.00;;;2.70;;
69754;SDS011;57023;52.218;5.158;2022-09-09T00:46:56;6.00;;;2.80;;
69754;SDS011;57023;52.218;5.158;2022-09-09T00:49:35;7.93;;;3.30;;
69754;SDS011;57023;52.218;5.158;2022-09-09T00:52:20;4.68;;;2.78;;
69754;SDS011;57023;52.218;5.158;2022-09-09T00:57:32;6.18;;;2.92;;
69754;SDS011;57023;52.218;5.158;2022-09-09T01:00:14;6.38;;;3.10;;
69754;SDS011;57023;52.218;5.158;2022-09-09T01:09:15;6.70;;;3.33;;
69754;SDS011;57023;52.218;5.158;2022-09-09T01:16:43;6.45;;;3.55;;
69754;SDS011;57023;52.218;5.158;2022-09-09T01:19:09;7.57;;;4.17;;
69754;SDS011;57023;52.218;5.158;2022-09-09T01:24:25;7.70;;;3.83;;
69754;SDS011;57023;52.218;5.158;2022-09-09T01:26:56;5.57;;;3.75;;
69754;SDS011;57023;52.218;5.158;2022-09-09T01:29:23;8.07;;;4.00;;
69754;SDS011;57023;52.218;5.158;2022-09-09T01:31:56;7.27;;;4.23;;
69754;SDS011;57023;52.218;5.158;2022-09-09T01:34:24;7.60;;;3.60;;
69754;SDS011;57023;52.218;5.158;2022-09-09T01:39:32;6.97;;;3.90;;
69754;SDS011;57023;52.218;5.158;2022-09-09T01:41:58;6.32;;;4.15;;
69754;SDS011;57023;52.218;5.158;2022-09-09T01:44:24;7.60;;;4.15;;
69754;SDS011;57023;52.218;5.158;2022-09-09T01:46:50;6.57;;;4.40;;
69754;SDS011;57023;52.218;5.158;2022-09-09T01:49:15;7.03;;;4.30;;
69754;SDS011;57023;52.218;5.158;2022-09-09T01:51:41;8.25;;;4.22;;
69754;SDS011;57023;52.218;5.158;2022-09-09T01:54:07;7.30;;;4.22;;
69754;SDS011;57023;52.218;5.158;2022-09-09T02:04:31;8.82;;;4.75;;
69754;SDS011;57023;52.218;5.158;2022-09-09T02:07:02;6.53;;;4.40;;
69754;SDS011;57023;52.218;5.158;2022-09-09T02:09:29;8.20;;;4.78;;
69754;SDS011;57023;52.218;5.158;2022-09-09T02:11:57;10.82;;;5.07;;
69754;SDS011;57023;52.218;5.158;2022-09-09T02:14:28;9.10;;;5.32;;
69754;SDS011;57023;52.218;5.158;2022-09-09T02:16:56;8.10;;;5.30;;
69754;SDS011;57023;52.218;5.158;2022-09-09T02:19:39;8.77;;;5.45;;
69754;SDS011;57023;52.218;5.158;2022-09-09T02:22:09;8.60;;;5.25;;
69754;SDS011;57023;52.218;5.158;2022-09-09T02:24:35;9.57;;;5.47;;
69754;SDS011;57023;52.218;5.158;2022-09-09T02:29:28;7.67;;;4.97;;
69754;SDS011;57023;52.218;5.158;2022-09-09T02:31:57;10.10;;;5.53;;
69754;SDS011;57023;52.218;5.158;2022-09-09T02:34:27;9.63;;;5.75;;
69754;SDS011;57023;52.218;5.158;2022-09-09T02:36:54;10.55;;;5.88;;
69754;SDS011;57023;52.218;5.158;2022-09-09T02:39:20;9.52;;;5.78;;
69754;SDS011;57023;52.218;5.158;2022-09-09T02:41:45;9.10;;;5.57;;
69754;SDS011;57023;52.218;5.158;2022-09-09T02:44:13;10.45;;;6.65;;
69754;SDS011;57023;52.218;5.158;2022-09-09T02:46:45;9.82;;;6.20;;
69754;SDS011;57023;52.218;5.158;2022-09-09T02:52:00;9.98;;;5.80;;
69754;SDS011;57023;52.218;5.158;2022-09-09T02:54:28;8.85;;;6.03;;
69754;SDS011;57023;52.218;5.158;2022-09-09T02:59:36;10.52;;;6.18;;
69754;SDS011;57023;52.218;5.158;2022-09-09T03:02:02;10.45;;;7.00;;
69754;SDS011;57023;52.218;5.158;2022-09-09T03:04:28;11.00;;;6.53;;
69754;SDS011;57023;52.218;5.158;2022-09-09T03:06:54;9.15;;;5.78;;
69754;SDS011;57023;52.218;5.158;2022-09-09T03:09:20;8.13;;;5.78;;
69754;SDS011;57023;52.218;5.158;2022-09-09T03:11:46;8.10;;;5.90;;
69754;SDS011;57023;52.218;5.158;2022-09-09T03:14:11;9.07;;;5.88;;
69754;SDS011;57023;52.218;5.158;2022-09-09T03:16:36;8.80;;;5.88;;
69754;SDS011;57023;52.218;5.158;2022-09-09T03:19:02;9.18;;;6.15;;
69754;SDS011;57023;52.218;5.158;2022-09-09T03:21:27;10.05;;;6.10;;
69754;SDS011;57023;52.218;5.158;2022-09-09T03:23:53;11.52;;;5.95;;
69754;SDS011;57023;52.218;5.158;2022-09-09T03:26:18;9.63;;;5.88;;
69754;SDS011;57023;52.218;5.158;2022-09-09T03:28:44;9.27;;;5.80;;
69754;SDS011;57023;52.218;5.158;2022-09-09T03:31:10;9.30;;;5.57;;
69754;SDS011;57023;52.218;5.158;2022-09-09T03:33:38;9.90;;;5.57;;
69754;SDS011;57023;52.218;5.158;2022-09-09T03:36:04;7.78;;;5.32;;
69754;SDS011;57023;52.218;5.158;2022-09-09T03:38:30;14.48;;;5.90;;
69754;SDS011;57023;52.218;5.158;2022-09-09T03:40:57;9.32;;;5.80;;
69754;SDS011;57023;52.218;5.158;2022-09-09T03:43:23;9.60;;;5.43;;
69754;SDS011;57023;52.218;5.158;2022-09-09T03:45:50;8.32;;;5.60;;
69754;SDS011;57023;52.218;5.158;2022-09-09T03:48:16;10.13;;;5.95;;
69754;SDS011;57023;52.218;5.158;2022-09-09T03:50:45;8.98;;;5.88;;
69754;SDS011;57023;52.218;5.158;2022-09-09T03:53:14;9.40;;;5.60;;
69754;SDS011;57023;52.218;5.158;2022-09-09T03:55:44;10.00;;;5.87;;
69754;SDS011;57023;52.218;5.158;2022-09-09T03:58:11;9.02;;;5.57;;
69754;SDS011;57023;52.218;5.158;2022-09-09T04:00:37;9.07;;;5.63;;
69754;SDS011;57023;52.218;5.158;2022-09-09T04:03:07;13.95;;;5.68;;
69754;SDS011;57023;52.218;5.158;2022-09-09T04:05:32;9.18;;;5.80;;
69754;SDS011;57023;52.218;5.158;2022-09-09T04:07:59;8.15;;;5.65;;
69754;SDS011;57023;52.218;5.158;2022-09-09T04:10:25;11.32;;;5.75;;
69754;SDS011;57023;52.218;5.158;2022-09-09T04:12:51;9.38;;;5.72;;
69754;SDS011;57023;52.218;5.158;2022-09-09T04:15:17;8.93;;;5.70;;
69754;SDS011;57023;52.218;5.158;2022-09-09T04:17:43;8.05;;;5.03;;
69754;SDS011;57023;52.218;5.158;2022-09-09T04:20:08;11.20;;;5.63;;
69754;SDS011;57023;52.218;5.158;2022-09-09T04:22:37;9.57;;;5.72;;
69754;SDS011;57023;52.218;5.158;2022-09-09T04:25:05;8.50;;;5.68;;
69754;SDS011;57023;52.218;5.158;2022-09-09T04:29:56;8.38;;;5.55;;
69754;SDS011;57023;52.218;5.158;2022-09-09T04:32:22;9.85;;;5.20;;
69754;SDS011;57023;52.218;5.158;2022-09-09T04:34:47;12.20;;;8.57;;
69754;SDS011;57023;52.218;5.158;2022-09-09T04:37:13;9.85;;;5.90;;
69754;SDS011;57023;52.218;5.158;2022-09-09T04:39:38;9.50;;;5.57;;
69754;SDS011;57023;52.218;5.158;2022-09-09T04:42:04;11.23;;;5.30;;
69754;SDS011;57023;52.218;5.158;2022-09-09T04:44:29;11.88;;;5.10;;
69754;SDS011;57023;52.218;5.158;2022-09-09T04:46:55;10.70;;;5.43;;
69754;SDS011;57023;52.218;5.158;2022-09-09T04:49:21;11.32;;;5.43;;
69754;SDS011;57023;52.218;5.158;2022-09-09T04:51:48;10.57;;;4.78;;
69754;SDS011;57023;52.218;5.158;2022-09-09T04:54:14;8.27;;;5.10;;
69754;SDS011;57023;52.218;5.158;2022-09-09T04:56:39;8.20;;;4.60;;
69754;SDS011;57023;52.218;5.158;2022-09-09T04:59:06;8.70;;;5.03;;
69754;SDS011;57023;52.218;5.158;2022-09-09T05:01:31;10.40;;;5.10;;
69754;SDS011;57023;52.218;5.158;2022-09-09T05:03:57;8.23;;;4.82;;
69754;SDS011;57023;52.218;5.158;2022-09-09T05:06:22;7.07;;;4.57;;
69754;SDS011;57023;52.218;5.158;2022-09-09T05:08:48;9.60;;;5.00;;
69754;SDS011;57023;52.218;5.158;2022-09-09T05:11:20;8.82;;;4.85;;
69754;SDS011;57023;52.218;5.158;2022-09-09T05:13:46;11.63;;;6.15;;
69754;SDS011;57023;52.218;5.158;2022-09-09T05:16:12;7.40;;;5.10;;
69754;SDS011;57023;52.218;5.158;2022-09-09T05:18:39;8.23;;;4.80;;
69754;SDS011;57023;52.218;5.158;2022-09-09T05:21:04;9.07;;;4.88;;
69754;SDS011;57023;52.218;5.158;2022-09-09T05:23:31;7.65;;;4.43;;
69754;SDS011;57023;52.218;5.158;2022-09-09T05:25:57;9.48;;;5.30;;
69754;SDS011;57023;52.218;5.158;2022-09-09T05:28:23;9.57;;;4.63;;
69754;SDS011;57023;52.218;5.158;2022-09-09T05:31:00;8.45;;;4.80;;
69754;SDS011;57023;52.218;5.158;2022-09-09T05:33:28;9.65;;;4.93;;
69754;SDS011;57023;52.218;5.158;2022-09-09T05:35:55;10.43;;;4.70;;
69754;SDS011;57023;52.218;5.158;2022-09-09T05:38:23;9.27;;;4.65;;
69754;SDS011;57023;52.218;5.158;2022-09-09T05:40:50;7.97;;;4.60;;
69754;SDS011;57023;52.218;5.158;2022-09-09T05:43:17;9.63;;;4.60;;
69754;SDS011;57023;52.218;5.158;2022-09-09T05:45:42;7.40;;;4.82;;
69754;SDS011;57023;52.218;5.158;2022-09-09T05:48:07;11.07;;;5.70;;
69754;SDS011;57023;52.218;5.158;2022-09-09T05:50:33;10.15;;;4.72;;
69754;SDS011;57023;52.218;5.158;2022-09-09T05:52:58;10.07;;;4.75;;
69754;SDS011;57023;52.218;5.158;2022-09-09T05:55:24;7.75;;;4.45;;
69754;SDS011;57023;52.218;5.158;2022-09-09T05:57:50;8.50;;;4.47;;
69754;SDS011;57023;52.218;5.158;2022-09-09T06:00:17;9.13;;;4.90;;
69754;SDS011;57023;52.218;5.158;2022-09-09T06:02:42;9.25;;;4.60;;
69754;SDS011;57023;52.218;5.158;2022-09-09T06:05:08;8.55;;;4.72;;
69754;SDS011;57023;52.218;5.158;2022-09-09T06:07:34;9.07;;;4.90;;
69754;SDS011;57023;52.218;5.158;2022-09-09T06:09:59;8.65;;;4.80;;
69754;SDS011;57023;52.218;5.158;2022-09-09T06:12:25;9.90;;;4.60;;
69754;SDS011;57023;52.218;5.158;2022-09-09T06:14:50;9.65;;;4.90;;
69754;SDS011;57023;52.218;5.158;2022-09-09T06:17:16;7.80;;;4.65;;
69754;SDS011;57023;52.218;5.158;2022-09-09T06:19:41;10.98;;;5.03;;
69754;SDS011;57023;52.218;5.158;2022-09-09T06:22:07;8.82;;;4.50;;
69754;SDS011;57023;52.218;5.158;2022-09-09T06:24:32;11.32;;;4.43;;
69754;SDS011;57023;52.218;5.158;2022-09-09T06:26:58;10.70;;;4.80;;
69754;SDS011;57023;52.218;5.158;2022-09-09T06:29:23;10.55;;;4.50;;
69754;SDS011;57023;52.218;5.158;2022-09-09T06:31:48;10.48;;;4.47;;
69754;SDS011;57023;52.218;5.158;2022-09-09T06:34:14;9.18;;;4.30;;
69754;SDS011;57023;52.218;5.158;2022-09-09T06:36:39;10.23;;;4.50;;
69754;SDS011;57023;52.218;5.158;2022-09-09T06:39:05;10.48;;;4.35;;
69754;SDS011;57023;52.218;5.158;2022-09-09T06:41:31;13.10;;;4.22;;
69754;SDS011;57023;52.218;5.158;2022-09-09T06:43:58;12.13;;;4.55;;
69754;SDS011;57023;52.218;5.158;2022-09-09T06:46:24;7.50;;;3.05;;
69754;SDS011;57023;52.218;5.158;2022-09-09T06:48:53;9.70;;;3.90;;
69754;SDS011;57023;52.218;5.158;2022-09-09T06:51:21;8.55;;;3.95;;
69754;SDS011;57023;52.218;5.158;2022-09-09T06:53:47;12.80;;;4.50;;
69754;SDS011;57023;52.218;5.158;2022-09-09T06:56:30;11.18;;;3.90;;
69754;SDS011;57023;52.218;5.158;2022-09-09T06:58:57;12.65;;;4.43;;
69754;SDS011;57023;52.218;5.158;2022-09-09T07:01:26;12.02;;;4.28;;
69754;SDS011;57023;52.218;5.158;2022-09-09T07:03:54;9.60;;;3.63;;
69754;SDS011;57023;52.218;5.158;2022-09-09T07:06:22;14.98;;;4.13;;
69754;SDS011;57023;52.218;5.158;2022-09-09T07:08:49;10.32;;;3.80;;
69754;SDS011;57023;52.218;5.158;2022-09-09T07:11:19;9.02;;;3.72;;
69754;SDS011;57023;52.218;5.158;2022-09-09T07:13:46;11.88;;;4.35;;
69754;SDS011;57023;52.218;5.158;2022-09-09T07:16:13;10.32;;;3.92;;
69754;SDS011;57023;52.218;5.158;2022-09-09T07:18:42;10.02;;;3.90;;
69754;SDS011;57023;52.218;5.158;2022-09-09T07:21:09;7.65;;;3.75;;
69754;SDS011;57023;52.218;5.158;2022-09-09T07:26:01;9.57;;;4.50;;
69754;SDS011;57023;52.218;5.158;2022-09-09T07:28:26;13.70;;;3.97;;
69754;SDS011;57023;52.218;5.158;2022-09-09T07:30:56;13.60;;;4.78;;
69754;SDS011;57023;52.218;5.158;2022-09-09T07:33:22;9.88;;;4.20;;
69754;SDS011;57023;52.218;5.158;2022-09-09T07:35:48;10.18;;;4.22;;
69754;SDS011;57023;52.218;5.158;2022-09-09T07:38:14;14.75;;;4.50;;
69754;SDS011;57023;52.218;5.158;2022-09-09T07:40:39;11.70;;;4.40;;
69754;SDS011;57023;52.218;5.158;2022-09-09T07:43:05;8.20;;;3.97;;
69754;SDS011;57023;52.218;5.158;2022-09-09T07:45:30;10.68;;;4.32;;
69754;SDS011;57023;52.218;5.158;2022-09-09T07:47:57;12.32;;;4.55;;
69754;SDS011;57023;52.218;5.158;2022-09-09T07:50:23;9.93;;;4.47;;
69754;SDS011;57023;52.218;5.158;2022-09-09T07:52:48;7.97;;;3.20;;
69754;SDS011;57023;52.218;5.158;2022-09-09T07:55:14;11.90;;;4.55;;
69754;SDS011;57023;52.218;5.158;2022-09-09T07:57:40;10.38;;;4.70;;
69754;SDS011;57023;52.218;5.158;2022-09-09T08:00:05;10.73;;;4.50;;
69754;SDS011;57023;52.218;5.158;2022-09-09T08:02:31;11.82;;;4.35;;
69754;SDS011;57023;52.218;5.158;2022-09-09T08:04:56;12.82;;;4.75;;
69754;SDS011;57023;52.218;5.158;2022-09-09T08:07:22;9.30;;;4.40;;
69754;SDS011;57023;52.218;5.158;2022-09-09T08:09:48;10.65;;;4.90;;
69754;SDS011;57023;52.218;5.158;2022-09-09T08:12:14;8.52;;;4.47;;
69754;SDS011;57023;52.218;5.158;2022-09-09T08:14:39;10.95;;;4.63;;
69754;SDS011;57023;52.218;5.158;2022-09-09T08:17:05;10.55;;;4.68;;
69754;SDS011;57023;52.218;5.158;2022-09-09T08:19:30;7.57;;;4.07;;
69754;SDS011;57023;52.218;5.158;2022-09-09T08:21:58;9.18;;;4.50;;
69754;SDS011;57023;52.218;5.158;2022-09-09T08:24:24;13.43;;;4.30;;
69754;SDS011;57023;52.218;5.158;2022-09-09T08:26:49;7.53;;;3.90;;
69754;SDS011;57023;52.218;5.158;2022-09-09T08:29:15;10.95;;;4.32;;
69754;SDS011;57023;52.218;5.158;2022-09-09T08:31:48;12.50;;;4.22;;
69754;SDS011;57023;52.218;5.158;2022-09-09T08:34:15;10.63;;;4.93;;
69754;SDS011;57023;52.218;5.158;2022-09-09T08:36:41;10.88;;;3.65;;
69754;SDS011;57023;52.218;5.158;2022-09-09T08:39:09;9.48;;;4.20;;
69754;SDS011;57023;52.218;5.158;2022-09-09T08:44:07;8.30;;;4.53;;
69754;SDS011;57023;52.218;5.158;2022-09-09T08:46:41;9.25;;;3.38;;
69754;SDS011;57023;52.218;5.158;2022-09-09T08:49:14;11.93;;;3.90;;
69754;SDS011;57023;52.218;5.158;2022-09-09T08:52:02;7.25;;;3.70;;
69754;SDS011;57023;52.218;5.158;2022-09-09T08:54:28;6.05;;;3.53;;
69754;SDS011;57023;52.218;5.158;2022-09-09T08:56:58;8.63;;;3.97;;
69754;SDS011;57023;52.218;5.158;2022-09-09T08:59:24;8.70;;;3.90;;
69754;SDS011;57023;52.218;5.158;2022-09-09T09:01:55;8.90;;;3.75;;
69754;SDS011;57023;52.218;5.158;2022-09-09T09:04:40;7.95;;;3.90;;
69754;SDS011;57023;52.218;5.158;2022-09-09T09:10:02;11.55;;;4.20;;
69754;SDS011;57023;52.218;5.158;2022-09-09T09:12:41;11.07;;;4.45;;
69754;SDS011;57023;52.218;5.158;2022-09-09T09:15:21;9.10;;;3.80;;
69754;SDS011;57023;52.218;5.158;2022-09-09T09:17:49;7.32;;;4.18;;
69754;SDS011;57023;52.218;5.158;2022-09-09T09:20:15;9.82;;;3.33;;
69754;SDS011;57023;52.218;5.158;2022-09-09T09:22:52;10.70;;;4.20;;
69754;SDS011;57023;52.218;5.158;2022-09-09T09:25:22;8.75;;;3.47;;
69754;SDS011;57023;52.218;5.158;2022-09-09T09:27:59;10.98;;;4.32;;
69754;SDS011;57023;52.218;5.158;2022-09-09T09:30:37;11.05;;;4.20;;
69754;SDS011;57023;52.218;5.158;2022-09-09T09:33:08;8.95;;;4.07;;
69754;SDS011;57023;52.218;5.158;2022-09-09T09:35:39;12.90;;;3.90;;
69754;SDS011;57023;52.218;5.158;2022-09-09T09:38:18;12.10;;;4.18;;
69754;SDS011;57023;52.218;5.158;2022-09-09T09:40:49;8.48;;;3.97;;
69754;SDS011;57023;52.218;5.158;2022-09-09T09:43:20;12.90;;;4.57;;
69754;SDS011;57023;52.218;5.158;2022-09-09T09:45:48;11.52;;;4.20;;
69754;SDS011;57023;52.218;5.158;2022-09-09T09:48:14;10.60;;;4.28;;
69754;SDS011;57023;52.218;5.158;2022-09-09T09:50:52;11.80;;;4.53;;
69754;SDS011;57023;52.218;5.158;2022-09-09T09:53:24;13.20;;;3.90;;
69754;SDS011;57023;52.218;5.158;2022-09-09T09:56:12;9.35;;;3.60;;
69754;SDS011;57023;52.218;5.158;2022-09-09T10:04:02;12.23;;;4.07;;
69754;SDS011;57023;52.218;5.158;2022-09-09T10:06:41;8.50;;;3.83;;
69754;SDS011;57023;52.218;5.158;2022-09-09T10:09:20;8.20;;;3.78;;
69754;SDS011;57023;52.218;5.158;2022-09-09T10:14:27;10.73;;;3.90;;
69754;SDS011;57023;52.218;5.158;2022-09-09T10:19:32;7.60;;;3.67;;
69754;SDS011;57023;52.218;5.158;2022-09-09T10:37:41;9.93;;;4.18;;
69754;SDS011;57023;52.218;5.158;2022-09-09T10:40:18;7.32;;;3.92;;
69754;SDS011;57023;52.218;5.158;2022-09-09T10:42:44;7.63;;;3.88;;
69754;SDS011;57023;52.218;5.158;2022-09-09T10:45:18;12.45;;;4.65;;
69754;SDS011;57023;52.218;5.158;2022-09-09T10:53:46;10.55;;;4.05;;
69754;SDS011;57023;52.218;5.158;2022-09-09T10:56:18;8.95;;;3.65;;
69754;SDS011;57023;52.218;5.158;2022-09-09T10:58:53;11.43;;;3.70;;
69754;SDS011;57023;52.218;5.158;2022-09-09T11:01:40;6.88;;;3.50;;
69754;SDS011;57023;52.218;5.158;2022-09-09T11:04:17;9.10;;;3.90;;
69754;SDS011;57023;52.218;5.158;2022-09-09T11:06:48;8.93;;;3.75;;
69754;SDS011;57023;52.218;5.158;2022-09-09T11:09:18;7.20;;;3.95;;
69754;SDS011;57023;52.218;5.158;2022-09-09T11:11:49;12.32;;;3.78;;
69754;SDS011;57023;52.218;5.158;2022-09-09T11:14:19;8.18;;;3.83;;
69754;SDS011;57023;52.218;5.158;2022-09-09T11:16:58;8.50;;;4.10;;
69754;SDS011;57023;52.218;5.158;2022-09-09T11:19:39;7.03;;;3.70;;
69754;SDS011;57023;52.218;5.158;2022-09-09T11:27:27;8.02;;;3.88;;
69754;SDS011;57023;52.218;5.158;2022-09-09T11:33:33;7.88;;;3.88;;
69754;SDS011;57023;52.218;5.158;2022-09-09T11:38:28;8.30;;;3.63;;
69754;SDS011;57023;52.218;5.158;2022-09-09T11:40:58;6.25;;;3.75;;
69754;SDS011;57023;52.218;5.158;2022-09-09T11:43:40;8.68;;;3.83;;
69754;SDS011;57023;52.218;5.158;2022-09-09T11:46:08;10.30;;;4.50;;
69754;SDS011;57023;52.218;5.158;2022-09-09T11:48:37;10.35;;;3.70;;
69754;SDS011;57023;52.218;5.158;2022-09-09T11:51:08;8.60;;;3.70;;
69754;SDS011;57023;52.218;5.158;2022-09-09T11:53:46;8.20;;;3.90;;
69754;SDS011;57023;52.218;5.158;2022-09-09T11:56:23;8.13;;;3.55;;
69754;SDS011;57023;52.218;5.158;2022-09-09T11:58:58;9.00;;;3.80;;
69754;SDS011;57023;52.218;5.158;2022-09-09T12:01:28;8.18;;;3.70;;
69754;SDS011;57023;52.218;5.158;2022-09-09T12:09:12;8.20;;;4.35;;
69754;SDS011;57023;52.218;5.158;2022-09-09T12:12:07;7.73;;;3.90;;
69754;SDS011;57023;52.218;5.158;2022-09-09T12:14:58;8.57;;;3.83;;
69754;SDS011;57023;52.218;5.158;2022-09-09T12:17:25;8.38;;;3.75;;
69754;SDS011;57023;52.218;5.158;2022-09-09T12:28:46;8.20;;;4.50;;
69754;SDS011;57023;52.218;5.158;2022-09-09T12:34:02;8.95;;;3.95;;
69754;SDS011;57023;52.218;5.158;2022-09-09T12:36:51;7.72;;;3.85;;
69754;SDS011;57023;52.218;5.158;2022-09-09T12:39:29;7.07;;;4.18;;
69754;SDS011;57023;52.218;5.158;2022-09-09T12:41:57;7.15;;;3.92;;
69754;SDS011;57023;52.218;5.158;2022-09-09T12:44:23;7.43;;;3.70;;
69754;SDS011;57023;52.218;5.158;2022-09-09T12:46:49;8.18;;;4.32;;
69754;SDS011;57023;52.218;5.158;2022-09-09T12:49:24;7.82;;;4.10;;
69754;SDS011;57023;52.218;5.158;2022-09-09T12:51:53;6.75;;;4.20;;
69754;SDS011;57023;52.218;5.158;2022-09-09T12:54:18;8.82;;;4.40;;
69754;SDS011;57023;52.218;5.158;2022-09-09T12:56:47;6.38;;;3.97;;
69754;SDS011;57023;52.218;5.158;2022-09-09T12:59:22;11.95;;;4.60;;
69754;SDS011;57023;52.218;5.158;2022-09-09T13:01:58;7.72;;;4.70;;
69754;SDS011;57023;52.218;5.158;2022-09-09T13:04:24;7.82;;;4.50;;
69754;SDS011;57023;52.218;5.158;2022-09-09T13:06:49;7.97;;;4.40;;
69754;SDS011;57023;52.218;5.158;2022-09-09T13:09:17;8.80;;;4.68;;
69754;SDS011;57023;52.218;5.158;2022-09-09T13:11:42;7.60;;;4.38;;
69754;SDS011;57023;52.218;5.158;2022-09-09T13:14:22;9.75;;;5.30;;
69754;SDS011;57023;52.218;5.158;2022-09-09T13:16:59;10.98;;;4.78;;
69754;SDS011;57023;52.218;5.158;2022-09-09T13:19:33;6.15;;;4.18;;
69754;SDS011;57023;52.218;5.158;2022-09-09T13:22:10;9.30;;;4.80;;
69754;SDS011;57023;52.218;5.158;2022-09-09T13:24:38;8.15;;;4.78;;
69754;SDS011;57023;52.218;5.158;2022-09-09T13:27:05;7.13;;;4.78;;
69754;SDS011;57023;52.218;5.158;2022-09-09T13:29:52;8.23;;;4.75;;
69754;SDS011;57023;52.218;5.158;2022-09-09T13:32:21;11.23;;;4.45;;
69754;SDS011;57023;52.218;5.158;2022-09-09T13:34:51;10.25;;;4.82;;
69754;SDS011;57023;52.218;5.158;2022-09-09T13:37:24;7.03;;;3.67;;
69754;SDS011;57023;52.218;5.158;2022-09-09T13:39:54;7.97;;;4.45;;
69754;SDS011;57023;52.218;5.158;2022-09-09T13:42:27;9.98;;;4.65;;
69754;SDS011;57023;52.218;5.158;2022-09-09T13:44:54;6.70;;;4.30;;
69754;SDS011;57023;52.218;5.158;2022-09-09T13:47:21;7.47;;;4.68;;
69754;SDS011;57023;52.218;5.158;2022-09-09T13:49:53;7.82;;;4.60;;
69754;SDS011;57023;52.218;5.158;2022-09-09T13:52:19;7.32;;;4.63;;
69754;SDS011;57023;52.218;5.158;2022-09-09T13:54:50;9.55;;;4.57;;
69754;SDS011;57023;52.218;5.158;2022-09-09T13:57:22;9.88;;;4.78;;
69754;SDS011;57023;52.218;5.158;2022-09-09T13:59:50;8.18;;;4.25;;
69754;SDS011;57023;52.218;5.158;2022-09-09T14:02:16;8.70;;;4.18;;
69754;SDS011;57023;52.218;5.158;2022-09-09T14:04:42;9.80;;;4.30;;
69754;SDS011;57023;52.218;5.158;2022-09-09T14:07:11;5.53;;;2.80;;
69754;SDS011;57023;52.218;5.158;2022-09-09T14:09:38;7.10;;;3.58;;
69754;SDS011;57023;52.218;5.158;2022-09-09T14:12:08;9.00;;;4.45;;
69754;SDS011;57023;52.218;5.158;2022-09-09T14:14:35;7.28;;;4.25;;
69754;SDS011;57023;52.218;5.158;2022-09-09T14:17:01;8.05;;;4.43;;
69754;SDS011;57023;52.218;5.158;2022-09-09T14:19:26;7.80;;;4.28;;
69754;SDS011;57023;52.218;5.158;2022-09-09T14:21:51;9.25;;;4.65;;
69754;SDS011;57023;52.218;5.158;2022-09-09T14:24:16;8.15;;;4.68;;
69754;SDS011;57023;52.218;5.158;2022-09-09T14:26:42;8.63;;;4.95;;
69754;SDS011;57023;52.218;5.158;2022-09-09T14:29:07;8.55;;;4.57;;
69754;SDS011;57023;52.218;5.158;2022-09-09T14:31:33;8.40;;;4.53;;
69754;SDS011;57023;52.218;5.158;2022-09-09T14:33:58;8.35;;;4.30;;
69754;SDS011;57023;52.218;5.158;2022-09-09T14:36:24;7.65;;;4.65;;
69754;SDS011;57023;52.218;5.158;2022-09-09T14:38:49;7.28;;;4.68;;
69754;SDS011;57023;52.218;5.158;2022-09-09T14:41:17;7.28;;;4.53;;
69754;SDS011;57023;52.218;5.158;2022-09-09T14:43:43;9.45;;;4.60;;
69754;SDS011;57023;52.218;5.158;2022-09-09T14:46:12;8.00;;;4.80;;
69754;SDS011;57023;52.218;5.158;2022-09-09T14:48:40;10.15;;;4.40;;
69754;SDS011;57023;52.218;5.158;2022-09-09T14:51:09;9.93;;;4.60;;
69754;SDS011;57023;52.218;5.158;2022-09-09T14:53:42;7.78;;;4.72;;
69754;SDS011;57023;52.218;5.158;2022-09-09T14:58:35;7.80;;;4.18;;
69754;SDS011;57023;52.218;5.158;2022-09-09T15:01:02;7.83;;;4.40;;
69754;SDS011;57023;52.218;5.158;2022-09-09T15:03:29;8.85;;;4.43;;
69754;SDS011;57023;52.218;5.158;2022-09-09T15:05:55;7.40;;;3.53;;
69754;SDS011;57023;52.218;5.158;2022-09-09T15:08:23;7.60;;;4.38;;
69754;SDS011;57023;52.218;5.158;2022-09-09T15:10:49;5.03;;;3.13;;
69754;SDS011;57023;52.218;5.158;2022-09-09T15:13:15;3.70;;;2.35;;
69754;SDS011;57023;52.218;5.158;2022-09-09T15:15:45;4.70;;;2.20;;
69754;SDS011;57023;52.218;5.158;2022-09-09T15:18:10;3.60;;;2.00;;
69754;SDS011;57023;52.218;5.158;2022-09-09T15:20:35;4.00;;;1.85;;
69754;SDS011;57023;52.218;5.158;2022-09-09T15:23:02;5.60;;;2.53;;
69754;SDS011;57023;52.218;5.158;2022-09-09T15:25:27;3.35;;;2.05;;
69754;SDS011;57023;52.218;5.158;2022-09-09T15:27:53;4.70;;;2.45;;
69754;SDS011;57023;52.218;5.158;2022-09-09T15:30:18;6.10;;;2.60;;
69754;SDS011;57023;52.218;5.158;2022-09-09T15:32:43;6.30;;;2.70;;
69754;SDS011;57023;52.218;5.158;2022-09-09T15:35:09;7.55;;;3.00;;
69754;SDS011;57023;52.218;5.158;2022-09-09T15:37:34;5.78;;;2.85;;
69754;SDS011;57023;52.218;5.158;2022-09-09T15:39:59;7.60;;;2.88;;
69754;SDS011;57023;52.218;5.158;2022-09-09T15:42:25;8.57;;;3.20;;
69754;SDS011;57023;52.218;5.158;2022-09-09T15:44:51;5.03;;;2.92;;
69754;SDS011;57023;52.218;5.158;2022-09-09T15:47:16;5.88;;;3.00;;
69754;SDS011;57023;52.218;5.158;2022-09-09T15:49:42;6.50;;;3.45;;
69754;SDS011;57023;52.218;5.158;2022-09-09T15:52:08;6.78;;;2.92;;
69754;SDS011;57023;52.218;5.158;2022-09-09T15:54:35;7.93;;;3.53;;
69754;SDS011;57023;52.218;5.158;2022-09-09T15:57:04;5.32;;;3.28;;
69754;SDS011;57023;52.218;5.158;2022-09-09T16:01:57;5.43;;;3.23;;
69754;SDS011;57023;52.218;5.158;2022-09-09T16:04:25;6.10;;;3.13;;
69754;SDS011;57023;52.218;5.158;2022-09-09T16:07:24;6.82;;;3.30;;
69754;SDS011;57023;52.218;5.158;2022-09-09T16:09:42;5.63;;;3.03;;
69754;SDS011;57023;52.218;5.158;2022-09-09T16:12:08;7.68;;;3.20;;
69754;SDS011;57023;52.218;5.158;2022-09-09T16:14:37;7.53;;;3.25;;
69754;SDS011;57023;52.218;5.158;2022-09-09T16:17:03;5.47;;;2.90;;
69754;SDS011;57023;52.218;5.158;2022-09-09T16:19:30;5.38;;;2.65;;
69754;SDS011;57023;52.218;5.158;2022-09-09T16:21:56;6.65;;;2.97;;
69754;SDS011;57023;52.218;5.158;2022-09-09T16:24:21;6.38;;;2.70;;
69754;SDS011;57023;52.218;5.158;2022-09-09T16:26:48;4.07;;;2.25;;
69754;SDS011;57023;52.218;5.158;2022-09-09T16:29:15;5.45;;;2.63;;
69754;SDS011;57023;52.218;5.158;2022-09-09T16:31:41;5.72;;;2.67;;
69754;SDS011;57023;52.218;5.158;2022-09-09T16:34:07;7.90;;;2.70;;
69754;SDS011;57023;52.218;5.158;2022-09-09T16:36:34;6.55;;;2.75;;
69754;SDS011;57023;52.218;5.158;2022-09-09T16:39:01;6.00;;;2.90;;
69754;SDS011;57023;52.218;5.158;2022-09-09T16:41:29;6.63;;;2.80;;
69754;SDS011;57023;52.218;5.158;2022-09-09T16:43:58;6.78;;;3.08;;
69754;SDS011;57023;52.218;5.158;2022-09-09T16:46:25;5.80;;;3.00;;
69754;SDS011;57023;52.218;5.158;2022-09-09T16:48:52;7.07;;;2.80;;
69754;SDS011;57023;52.218;5.158;2022-09-09T16:51:20;5.10;;;3.00;;
69754;SDS011;57023;52.218;5.158;2022-09-09T16:53:51;6.15;;;2.72;;
69754;SDS011;57023;52.218;5.158;2022-09-09T16:56:18;8.02;;;3.17;;
69754;SDS011;57023;52.218;5.158;2022-09-09T16:58:48;7.97;;;3.08;;
69754;SDS011;57023;52.218;5.158;2022-09-09T17:01:15;6.18;;;2.90;;